createdAt,value
2022-11-21T00:01:17.893Z,7.80
2022-11-21T00:03:44.545Z,7.88
2022-11-21T00:06:11.139Z,7.84
2022-11-21T00:08:37.744Z,7.87
2022-11-21T00:11:04.335Z,7.82
2022-11-21T00:13:30.935Z,7.85
2022-11-21T00:16:03.759Z,7.77
2022-11-21T00:18:30.425Z,7.61
2022-11-21T00:20:57.072Z,7.58
2022-11-21T00:23:28.206Z,7.55
2022-11-21T00:25:54.803Z,7.49
2022-11-21T00:28:21.400Z,7.46
2022-11-21T00:30:48.047Z,7.48
2022-11-21T00:33:14.755Z,7.48
2022-11-21T00:35:41.444Z,7.47
2022-11-21T00:38:08.062Z,7.50
2022-11-21T00:40:34.689Z,7.50
2022-11-21T00:43:01.326Z,7.65
2022-11-21T00:45:28.921Z,7.62
2022-11-21T00:47:55.543Z,7.61
2022-11-21T00:50:22.211Z,7.54
2022-11-21T00:52:48.828Z,7.24
2022-11-21T00:55:15.601Z,7.41
2022-11-21T00:57:42.215Z,7.76
2022-11-21T01:00:09.677Z,7.73
2022-11-21T01:02:36.306Z,7.59
2022-11-21T01:05:03.175Z,7.31
2022-11-21T01:07:30.225Z,7.60
2022-11-21T01:09:56.872Z,7.48
2022-11-21T01:12:24.041Z,7.27
2022-11-21T01:14:50.728Z,7.30
2022-11-21T01:17:17.667Z,7.38
2022-11-21T01:19:44.798Z,7.54
2022-11-21T01:22:11.397Z,7.62
2022-11-21T01:24:38.044Z,7.55
2022-11-21T01:27:04.711Z,7.61
2022-11-21T01:29:31.309Z,7.51
2022-11-21T01:31:57.996Z,7.57
2022-11-21T01:34:24.746Z,7.47
2022-11-21T01:36:51.571Z,7.76
2022-11-21T01:39:18.157Z,7.71
2022-11-21T01:41:45.822Z,7.59
2022-11-21T01:44:24.921Z,7.60
2022-11-21T01:46:53.012Z,7.56
2022-11-21T01:49:21.630Z,7.27
2022-11-21T01:51:57.958Z,7.04
2022-11-21T01:54:32.150Z,7.06
2022-11-21T01:57:08.255Z,7.12
2022-11-21T01:59:44.645Z,7.78
2022-11-21T02:02:15.378Z,7.33
2022-11-21T02:04:43.530Z,7.65
2022-11-21T02:07:13.068Z,7.24
2022-11-21T02:09:42.108Z,7.68
2022-11-21T02:12:15.566Z,7.26
2022-11-21T02:15:02.154Z,7.66
2022-11-21T02:17:30.983Z,7.54
2022-11-21T02:20:09.226Z,7.60
2022-11-21T02:23:05.708Z,7.54
2022-11-21T02:25:36.355Z,7.55
2022-11-21T02:28:06.269Z,7.55
2022-11-21T02:30:36.860Z,7.55
2022-11-21T02:33:03.836Z,7.56
2022-11-21T02:35:30.587Z,7.48
2022-11-21T02:38:12.263Z,7.52
2022-11-21T02:40:48.979Z,7.54
2022-11-21T02:43:28.383Z,7.52
2022-11-21T02:45:55.192Z,7.53
2022-11-21T02:48:21.855Z,7.62
2022-11-21T02:50:48.525Z,7.50
2022-11-21T02:53:18.168Z,7.24
2022-11-21T02:55:45.268Z,7.30
2022-11-21T02:58:12.575Z,7.28
2022-11-21T03:00:41.570Z,7.31
2022-11-21T03:03:08.915Z,7.29
2022-11-21T03:05:36.048Z,7.19
2022-11-21T03:08:03.626Z,7.39
2022-11-21T03:10:30.311Z,7.49
2022-11-21T03:13:01.042Z,7.43
2022-11-21T03:15:35.076Z,7.49
2022-11-21T03:18:02.947Z,7.62
2022-11-21T03:20:34.672Z,7.69
2022-11-21T03:23:02.084Z,7.74
2022-11-21T03:25:29.160Z,7.66
2022-11-21T03:27:55.906Z,7.56
2022-11-21T03:30:24.770Z,7.63
2022-11-21T03:32:54.702Z,7.66
2022-11-21T03:35:21.315Z,7.58
2022-11-21T03:37:49.031Z,7.60
2022-11-21T03:40:15.655Z,7.60
2022-11-21T03:42:42.343Z,7.61
2022-11-21T03:45:09.311Z,7.57
2022-11-21T03:47:36.001Z,7.50
2022-11-21T03:50:02.682Z,7.63
2022-11-21T03:52:30.381Z,7.66
2022-11-21T03:54:57.049Z,7.62
2022-11-21T03:57:23.669Z,7.61
2022-11-21T03:59:50.364Z,7.66
2022-11-21T04:02:17.019Z,7.62
2022-11-21T04:04:43.641Z,7.64
2022-11-21T04:07:10.374Z,7.67
2022-11-21T04:09:37.234Z,7.59
2022-11-21T04:12:07.672Z,7.56
2022-11-21T04:14:34.979Z,7.50
2022-11-21T04:17:01.988Z,7.53
2022-11-21T04:19:28.815Z,7.52
2022-11-21T04:21:55.455Z,7.37
2022-11-21T04:24:22.243Z,7.39
2022-11-21T04:26:48.885Z,7.41
2022-11-21T04:29:15.896Z,7.43
2022-11-21T04:31:42.718Z,7.36
2022-11-21T04:34:09.397Z,7.43
2022-11-21T04:36:36.360Z,7.42
2022-11-21T04:39:04.089Z,7.50
2022-11-21T04:41:30.707Z,7.50
2022-11-21T04:43:57.300Z,7.58
2022-11-21T04:46:24.203Z,7.63
2022-11-21T04:48:51.229Z,7.61
2022-11-21T04:51:18.292Z,7.59
2022-11-21T04:53:45.127Z,7.60
2022-11-21T04:56:16.145Z,7.73
2022-11-21T04:58:44.725Z,7.64
2022-11-21T05:01:11.817Z,7.66
2022-11-21T05:03:38.942Z,7.72
2022-11-21T05:06:05.916Z,7.84
2022-11-21T05:08:32.565Z,7.84
2022-11-21T05:11:18.091Z,7.70
2022-11-21T05:13:44.851Z,7.70
2022-11-21T05:16:11.488Z,7.60
2022-11-21T05:18:38.356Z,7.77
2022-11-21T05:21:05.861Z,7.77
2022-11-21T05:23:32.547Z,7.74
2022-11-21T05:25:59.134Z,7.77
2022-11-21T05:28:25.828Z,7.82
2022-11-21T05:30:52.495Z,7.73
2022-11-21T05:33:19.275Z,7.76
2022-11-21T05:35:46.441Z,7.79
2022-11-21T05:38:13.125Z,7.73
2022-11-21T05:40:40.011Z,7.72
2022-11-21T05:43:25.705Z,7.68
2022-11-21T05:45:52.907Z,7.84
2022-11-21T05:48:19.589Z,7.89
2022-11-21T05:50:49.726Z,7.87
2022-11-21T05:53:17.519Z,7.77
2022-11-21T05:55:44.567Z,7.73
2022-11-21T05:58:11.505Z,7.82
2022-11-21T06:00:38.547Z,7.78
2022-11-21T06:03:25.069Z,7.65
2022-11-21T06:05:52.021Z,7.61
2022-11-21T06:08:19.135Z,7.66
2022-11-21T06:10:45.809Z,7.62
2022-11-21T06:13:24.530Z,7.94
2022-11-21T06:15:58.842Z,7.68
2022-11-21T06:18:26.714Z,7.74
2022-11-21T06:20:53.769Z,7.71
2022-11-21T06:23:20.895Z,7.60
2022-11-21T06:25:47.487Z,7.71
2022-11-21T06:28:14.260Z,7.74
2022-11-21T06:30:40.877Z,7.77
2022-11-21T06:33:07.991Z,7.80
2022-11-21T06:35:38.645Z,7.76
2022-11-21T06:38:05.396Z,7.81
2022-11-21T06:40:32.534Z,7.91
2022-11-21T06:42:59.116Z,7.89
2022-11-21T06:45:26.220Z,7.85
2022-11-21T06:47:52.859Z,7.83
2022-11-21T06:50:19.767Z,7.86
2022-11-21T06:52:46.577Z,7.86
2022-11-21T06:55:14.157Z,7.89
2022-11-21T06:57:40.817Z,7.83
2022-11-21T07:00:08.230Z,7.82
2022-11-21T07:02:34.852Z,7.82
2022-11-21T07:05:01.554Z,7.83
2022-11-21T07:07:30.361Z,7.85
2022-11-21T07:09:57.135Z,7.94
2022-11-21T07:12:42.451Z,7.76
2022-11-21T07:15:10.253Z,7.64
2022-11-21T07:17:37.044Z,7.76
2022-11-21T07:20:04.023Z,7.91
2022-11-21T07:22:30.654Z,7.88
2022-11-21T07:24:57.394Z,7.81
2022-11-21T07:27:24.088Z,7.82
2022-11-21T07:29:51.916Z,7.76
2022-11-21T07:32:18.787Z,7.80
2022-11-21T07:34:45.397Z,7.74
2022-11-21T07:37:12.126Z,7.82
2022-11-21T07:39:41.578Z,7.74
2022-11-21T07:42:08.174Z,7.67
2022-11-21T07:44:36.310Z,7.87
2022-11-21T07:47:03.017Z,7.80
2022-11-21T07:49:29.977Z,7.76
2022-11-21T07:51:56.924Z,7.42
2022-11-21T07:54:23.624Z,7.68
2022-11-21T07:56:51.332Z,7.69
2022-11-21T07:59:19.186Z,7.78
2022-11-21T08:01:45.959Z,7.82
2022-11-21T08:04:12.777Z,7.66
2022-11-21T08:06:39.492Z,7.70
2022-11-21T08:09:06.101Z,7.78
2022-11-21T08:11:32.755Z,7.75
2022-11-21T08:13:59.649Z,7.78
2022-11-21T08:16:28.020Z,8.02
2022-11-21T08:18:54.816Z,7.92
2022-11-21T08:21:21.418Z,7.66
2022-11-21T08:23:48.592Z,7.75
2022-11-21T08:26:15.199Z,7.93
2022-11-21T08:28:41.777Z,7.80
2022-11-21T08:31:08.934Z,7.88
2022-11-21T08:33:35.805Z,7.96
2022-11-21T08:36:06.917Z,7.92
2022-11-21T08:38:33.833Z,7.96
2022-11-21T08:41:18.848Z,7.92
2022-11-21T08:43:45.673Z,7.84
2022-11-21T08:46:12.491Z,7.95
2022-11-21T08:48:39.157Z,8.07
2022-11-21T08:51:05.790Z,8.38
2022-11-21T08:53:32.513Z,8.38
2022-11-21T08:56:04.005Z,8.39
2022-11-21T08:58:31.278Z,8.40
2022-11-21T09:01:00.385Z,8.10
2022-11-21T09:03:31.030Z,8.44
2022-11-21T09:05:59.236Z,8.56
2022-11-21T09:08:26.448Z,8.59
2022-11-21T09:10:53.308Z,8.62
2022-11-21T09:13:20.287Z,8.97
2022-11-21T09:16:09.213Z,8.89
2022-11-21T09:18:36.265Z,8.71
2022-11-21T09:21:02.938Z,9.05
2022-11-21T09:23:29.551Z,9.11
2022-11-21T09:25:56.188Z,9.42
2022-11-21T09:28:22.776Z,9.45
2022-11-21T09:30:49.389Z,9.30
2022-11-21T09:33:19.516Z,9.07
2022-11-21T09:35:46.099Z,8.89
2022-11-21T09:38:12.818Z,9.11
2022-11-21T09:40:46.087Z,9.27
2022-11-21T09:43:35.992Z,8.96
2022-11-21T09:46:09.998Z,8.84
2022-11-21T09:48:48.633Z,9.12
2022-11-21T09:51:18.467Z,9.40
2022-11-21T09:54:10.117Z,9.14
2022-11-21T09:56:40.939Z,9.32
2022-11-21T09:59:32.837Z,9.36
2022-11-21T10:01:59.732Z,9.22
2022-11-21T10:04:27.555Z,9.27
2022-11-21T10:07:11.258Z,9.18
2022-11-21T10:09:59.405Z,9.23
2022-11-21T10:12:55.312Z,9.49
2022-11-21T10:15:22.279Z,9.52
2022-11-21T10:18:19.235Z,9.72
2022-11-21T10:20:54.870Z,10.22
2022-11-21T10:23:49.632Z,11.41
2022-11-21T10:26:21.934Z,11.50
2022-11-21T10:28:58.287Z,11.51
2022-11-21T10:31:30.894Z,11.85
2022-11-21T10:34:03.220Z,11.18
2022-11-21T10:36:36.129Z,11.05
2022-11-21T10:39:12.933Z,10.67
2022-11-21T10:41:48.380Z,10.15
2022-11-21T10:44:43.488Z,10.00
2022-11-21T10:47:27.965Z,9.83
2022-11-21T10:50:18.775Z,9.97
2022-11-21T10:52:49.884Z,10.00
2022-11-21T10:55:18.408Z,10.20
2022-11-21T10:57:49.560Z,10.33
2022-11-21T11:00:27.347Z,10.35
2022-11-21T11:02:57.257Z,10.14
2022-11-21T11:05:29.018Z,10.39
2022-11-21T11:08:15.046Z,10.49
2022-11-21T11:11:02.259Z,10.64
2022-11-21T11:13:46.213Z,10.43
2022-11-21T11:16:21.230Z,10.44
2022-11-21T11:18:57.392Z,10.62
2022-11-21T11:21:46.479Z,10.50
2022-11-21T11:24:13.067Z,10.06
2022-11-21T11:26:49.473Z,9.96
2022-11-21T11:29:20.495Z,9.95
2022-11-21T11:31:53.491Z,10.11
2022-11-21T11:34:20.752Z,10.51
2022-11-21T11:37:04.145Z,10.58
2022-11-21T11:40:01.324Z,10.63
2022-11-21T11:43:07.045Z,10.43
2022-11-21T11:46:15.047Z,10.58
2022-11-21T11:49:03.603Z,10.37
2022-11-21T11:51:39.936Z,10.34
2022-11-21T11:54:17.591Z,10.38
2022-11-21T11:56:45.490Z,10.32
2022-11-21T11:59:12.114Z,10.37
2022-11-21T12:02:01.099Z,10.31
2022-11-21T12:04:33.769Z,10.07
2022-11-21T12:10:02.371Z,10.12
2022-11-21T12:12:43.677Z,10.04
2022-11-21T12:15:32.590Z,10.27
2022-11-21T12:18:17.983Z,10.11
2022-11-21T12:20:59.892Z,10.21
2022-11-21T12:23:51.418Z,10.21
2022-11-21T12:27:05.976Z,10.12
2022-11-21T12:29:56.711Z,9.93
2022-11-21T12:32:45.252Z,9.93
2022-11-21T12:35:40.628Z,9.76
2022-11-21T12:38:44.571Z,9.73
2022-11-21T12:41:41.551Z,9.86
2022-11-21T12:44:47.051Z,10.01
2022-11-21T12:47:55.453Z,9.78
2022-11-21T12:50:51.475Z,9.77
2022-11-21T12:53:51.772Z,9.83
2022-11-21T12:56:32.503Z,9.87
2022-11-21T12:59:00.903Z,9.85
2022-11-21T13:01:43.952Z,9.73
2022-11-21T13:04:18.131Z,9.77
2022-11-21T13:06:48.192Z,9.89
2022-11-21T13:09:22.153Z,9.91
2022-11-21T13:12:06.178Z,10.06
2022-11-21T13:14:54.973Z,10.11
2022-11-21T13:17:28.500Z,10.20
2022-11-21T13:20:22.821Z,10.23
2022-11-21T13:22:55.152Z,9.97
2022-11-21T13:25:43.860Z,10.28
2022-11-21T13:28:13.195Z,10.27
2022-11-21T13:30:56.800Z,10.32
2022-11-21T13:33:36.074Z,10.40
2022-11-21T13:36:13.349Z,10.40
2022-11-21T13:38:55.410Z,10.47
2022-11-21T13:41:53.179Z,10.55
2022-11-21T13:44:32.186Z,10.34
2022-11-21T13:47:20.345Z,10.31
2022-11-21T13:50:07.858Z,10.63
2022-11-21T13:52:45.237Z,10.66
2022-11-21T13:55:39.421Z,10.49
2022-11-21T13:58:24.407Z,10.70
2022-11-21T14:01:01.231Z,10.63
2022-11-21T14:03:38.110Z,10.29
2022-11-21T14:06:13.624Z,10.29
2022-11-21T14:08:40.693Z,10.34
2022-11-21T14:11:22.217Z,10.62
2022-11-21T14:13:49.749Z,10.51
2022-11-21T14:16:41.256Z,10.46
2022-11-21T14:19:14.870Z,10.43
2022-11-21T14:21:46.338Z,10.39
2022-11-21T14:24:18.704Z,10.35
2022-11-21T14:26:53.319Z,10.28
2022-11-21T14:29:26.673Z,10.12
2022-11-21T14:31:54.162Z,10.12
2022-11-21T14:34:28.635Z,10.07
2022-11-21T14:36:59.111Z,9.94
2022-11-21T14:39:38.763Z,9.91
2022-11-21T14:42:14.937Z,10.34
2022-11-21T14:44:41.565Z,10.20
2022-11-21T14:47:26.231Z,10.02
2022-11-21T14:49:56.096Z,9.89
2022-11-21T14:52:30.414Z,9.81
2022-11-21T14:57:48.107Z,9.90
2022-11-21T15:03:04.183Z,9.80
2022-11-21T15:06:04.073Z,9.77
2022-11-21T15:08:55.804Z,9.68
2022-11-21T15:11:11.976Z,9.44
2022-11-21T15:14:06.479Z,9.55
2022-11-21T15:16:26.839Z,9.60
2022-11-21T15:18:53.534Z,9.77
2022-11-21T15:21:20.347Z,9.73
2022-11-21T15:23:47.752Z,9.96
2022-11-21T15:26:35.578Z,9.82
2022-11-21T15:29:02.813Z,9.80
2022-11-21T15:31:29.647Z,9.65
2022-11-21T15:37:05.745Z,9.82
2022-11-21T15:39:33.245Z,9.74
2022-11-21T15:42:33.813Z,9.67
2022-11-21T15:45:03.549Z,9.74
2022-11-21T15:47:30.816Z,9.62
2022-11-21T15:49:57.842Z,9.60
2022-11-21T15:52:24.728Z,9.56
2022-11-21T15:54:51.316Z,9.81
2022-11-21T15:59:50.400Z,9.48
2022-11-21T16:02:17.253Z,9.87
2022-11-21T16:04:43.937Z,9.70
2022-11-21T16:07:10.756Z,9.55
2022-11-21T16:09:38.630Z,9.73
2022-11-21T16:12:05.434Z,9.61
2022-11-21T16:14:32.142Z,9.36
2022-11-21T16:16:58.819Z,9.39
2022-11-21T16:19:25.904Z,9.12
2022-11-21T16:21:53.703Z,9.23
2022-11-21T16:24:20.759Z,9.03
2022-11-21T16:26:49.463Z,9.13
2022-11-21T16:29:16.073Z,9.06
2022-11-21T16:31:42.807Z,9.16
2022-11-21T16:34:09.463Z,9.14
2022-11-21T16:36:36.260Z,9.20
2022-11-21T16:39:08.670Z,8.95
2022-11-21T16:41:36.953Z,9.04
2022-11-21T16:44:03.922Z,8.94
2022-11-21T16:46:30.939Z,8.73
2022-11-21T16:49:00.591Z,8.57
2022-11-21T16:51:28.039Z,8.62
2022-11-21T16:53:56.332Z,8.76
2022-11-21T16:56:23.630Z,8.74
2022-11-21T16:58:50.465Z,8.76
2022-11-21T17:01:20.282Z,8.71
2022-11-21T17:03:49.242Z,8.95
2022-11-21T17:06:18.631Z,9.21
2022-11-21T17:08:47.120Z,9.20
2022-11-21T17:11:22.915Z,9.10
2022-11-21T17:13:51.144Z,8.77
2022-11-21T17:16:19.653Z,8.64
2022-11-21T17:18:46.603Z,8.60
2022-11-21T17:21:15.780Z,8.70
2022-11-21T17:23:44.537Z,8.49
2022-11-21T17:26:13.771Z,8.19
2022-11-21T17:28:45.190Z,8.36
2022-11-21T17:31:15.215Z,8.10
2022-11-21T17:33:42.941Z,8.32
2022-11-21T17:36:14.739Z,8.52
2022-11-21T17:38:47.110Z,8.42
2022-11-21T17:41:16.825Z,8.49
2022-11-21T17:43:44.843Z,8.38
2022-11-21T17:46:19.937Z,8.19
2022-11-21T17:48:54.572Z,8.48
2022-11-21T17:51:25.437Z,8.66
2022-11-21T17:53:52.936Z,8.79
2022-11-21T17:56:26.032Z,8.81
2022-11-21T17:58:52.986Z,8.82
2022-11-21T18:01:20.579Z,8.77
2022-11-21T18:03:53.228Z,8.50
2022-11-21T18:06:20.338Z,8.53
2022-11-21T18:08:48.874Z,8.72
2022-11-21T18:11:19.201Z,8.79
2022-11-21T18:13:46.383Z,8.84
2022-11-21T18:16:15.447Z,8.75
2022-11-21T18:18:42.436Z,8.84
2022-11-21T18:21:12.030Z,8.71
2022-11-21T18:23:39.285Z,8.95
2022-11-21T18:26:08.591Z,9.01
2022-11-21T18:28:35.221Z,8.96
2022-11-21T18:31:10.068Z,9.05
2022-11-21T18:33:37.782Z,8.90
2022-11-21T18:36:06.249Z,8.83
2022-11-21T18:38:49.296Z,9.23
2022-11-21T18:41:28.246Z,8.75
2022-11-21T18:43:59.901Z,8.67
2022-11-21T18:46:28.821Z,8.42
2022-11-21T18:49:06.256Z,8.51
2022-11-21T18:51:36.448Z,8.85
2022-11-21T18:54:07.105Z,8.50
2022-11-21T18:56:34.780Z,8.70
2022-11-21T18:59:03.248Z,8.54
2022-11-21T19:01:31.676Z,8.83
2022-11-21T19:03:59.141Z,9.05
2022-11-21T19:06:27.148Z,8.96
2022-11-21T19:08:55.632Z,9.12
2022-11-21T19:11:24.563Z,9.17
2022-11-21T19:13:52.854Z,9.03
2022-11-21T19:16:24.259Z,8.73
2022-11-21T19:19:18.669Z,8.89
2022-11-21T19:21:38.959Z,8.85
2022-11-21T19:24:16.431Z,8.71
2022-11-21T19:26:43.166Z,8.73
2022-11-21T19:29:10.894Z,8.74
2022-11-21T19:31:44.094Z,8.73
2022-11-21T19:34:13.691Z,8.66
2022-11-21T19:36:40.745Z,9.06
2022-11-21T19:39:07.654Z,8.80
2022-11-21T19:41:34.405Z,9.02
2022-11-21T19:44:02.170Z,8.83
2022-11-21T19:46:31.582Z,8.86
2022-11-21T19:48:59.133Z,8.97
2022-11-21T19:51:32.141Z,9.07
2022-11-21T19:53:59.102Z,8.72
2022-11-21T19:56:26.241Z,8.86
2022-11-21T19:58:55.093Z,9.18
2022-11-21T20:01:27.648Z,9.06
2022-11-21T20:03:58.752Z,8.65
2022-11-21T20:06:28.105Z,8.77
2022-11-21T20:09:00.301Z,8.79
2022-11-21T20:11:28.723Z,8.53
2022-11-21T20:13:55.399Z,8.43
2022-11-21T20:16:30.414Z,8.37
2022-11-21T20:19:02.660Z,8.76
2022-11-21T20:21:30.222Z,8.72
2022-11-21T20:24:00.650Z,8.65
2022-11-21T20:26:27.787Z,8.80
2022-11-21T20:28:54.754Z,8.76
2022-11-21T20:31:24.848Z,8.68
2022-11-21T20:33:53.572Z,8.31
2022-11-21T20:36:36.321Z,8.49
2022-11-21T20:39:08.731Z,8.46
2022-11-21T20:41:36.848Z,8.63
2022-11-21T20:46:55.908Z,8.59
2022-11-21T20:49:22.638Z,8.69
2022-11-21T20:54:37.903Z,8.67
2022-11-21T20:57:04.493Z,8.81
2022-11-21T20:59:31.441Z,8.56
2022-11-21T21:01:58.320Z,8.41
2022-11-21T21:04:25.227Z,8.52
2022-11-21T21:06:51.949Z,8.38
2022-11-21T21:09:18.544Z,8.16
2022-11-21T21:11:53.373Z,7.94
2022-11-21T21:14:23.510Z,8.36
2022-11-21T21:16:50.466Z,8.29
2022-11-21T21:19:17.992Z,8.42
2022-11-21T21:21:44.753Z,8.59
2022-11-21T21:24:12.535Z,8.66
2022-11-21T21:26:43.181Z,8.35
2022-11-21T21:29:12.200Z,8.68
2022-11-21T21:31:38.976Z,8.20
2022-11-21T21:34:05.740Z,8.33
2022-11-21T21:36:32.832Z,8.15
2022-11-21T21:39:00.425Z,7.87
2022-11-21T21:41:28.742Z,8.17
2022-11-21T21:43:57.136Z,8.25
2022-11-21T21:46:26.139Z,8.10
2022-11-21T21:48:57.548Z,8.04
2022-11-21T21:51:26.932Z,8.16
2022-11-21T21:53:54.533Z,7.86
2022-11-21T21:56:22.778Z,7.91
2022-11-21T21:58:50.319Z,7.97
2022-11-21T22:01:20.071Z,8.23
2022-11-21T22:03:47.647Z,7.89
2022-11-21T22:06:18.384Z,7.69
2022-11-21T22:08:46.634Z,7.67
2022-11-21T22:11:14.235Z,7.65
2022-11-21T22:13:45.913Z,7.95
2022-11-21T22:16:13.770Z,7.90
2022-11-21T22:18:41.058Z,8.03
2022-11-21T22:21:16.821Z,7.81
2022-11-21T22:24:02.976Z,7.76
2022-11-21T22:26:32.076Z,8.08
2022-11-21T22:28:58.708Z,7.88
2022-11-21T22:31:25.383Z,7.93
2022-11-21T22:33:52.375Z,8.06
2022-11-21T22:36:19.558Z,8.22
2022-11-21T22:38:46.470Z,7.96
2022-11-21T22:41:17.299Z,7.94
2022-11-21T22:43:49.919Z,7.85
2022-11-21T22:46:16.860Z,7.87
2022-11-21T22:48:43.424Z,7.70
2022-11-21T22:51:13.810Z,7.74
2022-11-21T22:53:40.972Z,8.05
2022-11-21T22:56:10.532Z,8.07
2022-11-21T22:58:39.621Z,8.06
2022-11-21T23:01:12.400Z,8.18
2022-11-21T23:03:40.099Z,7.96
2022-11-21T23:06:11.085Z,8.12
2022-11-21T23:08:38.317Z,8.09
2022-11-21T23:11:14.720Z,8.06
2022-11-21T23:13:44.449Z,8.02
2022-11-21T23:16:11.824Z,7.88
2022-11-21T23:18:38.974Z,8.13
2022-11-21T23:21:06.389Z,7.72
2022-11-21T23:23:33.336Z,7.68
2022-11-21T23:26:00.068Z,7.51
2022-11-21T23:28:26.925Z,7.79
2022-11-21T23:30:53.548Z,7.78
2022-11-21T23:33:20.392Z,7.77
2022-11-21T23:35:47.605Z,7.92
2022-11-21T23:38:16.264Z,7.92
2022-11-21T23:40:45.979Z,7.84
2022-11-21T23:43:13.745Z,7.73
2022-11-21T23:45:40.580Z,8.24
2022-11-21T23:48:07.215Z,8.26
2022-11-21T23:50:33.790Z,7.91
2022-11-21T23:53:00.504Z,7.79
2022-11-21T23:55:27.199Z,7.73
2022-11-21T23:57:53.852Z,7.96
